createdAt,value
2024-04-17T00:01:18.974Z,93552.53
2024-04-17T00:03:46.775Z,93558.34
2024-04-17T00:06:14.644Z,93559.31
2024-04-17T00:08:41.920Z,93550.94
2024-04-17T00:11:09.415Z,93551.22
2024-04-17T00:13:37.939Z,93562.09
2024-04-17T00:16:05.712Z,93537.59
2024-04-17T00:18:33.058Z,93545.47
2024-04-17T00:21:00.698Z,93510.69
2024-04-17T00:23:28.616Z,93529.09
2024-04-17T00:25:55.954Z,93529.47
2024-04-17T00:28:26.710Z,93515.41
2024-04-17T00:30:54.428Z,93505.25
2024-04-17T00:33:22.171Z,93500.97
2024-04-17T00:35:49.765Z,93504.09
2024-04-17T00:38:17.258Z,93507.25
2024-04-17T00:40:44.622Z,93506.94
2024-04-17T00:43:12.052Z,93505.44
2024-04-17T00:45:46.245Z,93479.44
2024-04-17T00:48:14.938Z,93496.31
2024-04-17T00:50:46.632Z,93503.38
2024-04-17T00:53:18.656Z,93491.19
2024-04-17T00:55:47.587Z,93487.84
2024-04-17T00:58:16.244Z,93507.50
2024-04-17T01:00:43.559Z,93498.81
2024-04-17T01:03:11.213Z,93458.22
2024-04-17T01:05:38.527Z,93478.38
2024-04-17T01:08:07.819Z,93464.44
2024-04-17T01:10:35.832Z,93449.66
2024-04-17T01:13:03.503Z,93465.72
2024-04-17T01:15:30.814Z,93445.13
2024-04-17T01:18:00.249Z,93434.03
2024-04-17T01:20:27.698Z,93453.81
2024-04-17T01:22:54.944Z,93450.31
2024-04-17T01:25:22.299Z,93446.06
2024-04-17T01:27:49.436Z,93442.28
2024-04-17T01:30:16.787Z,93440.69
2024-04-17T01:32:44.330Z,93445.91
2024-04-17T01:35:11.633Z,93449.88
2024-04-17T01:37:38.808Z,93442.91
2024-04-17T01:40:06.489Z,93420.75
2024-04-17T01:42:33.794Z,93421.81
2024-04-17T01:45:01.110Z,93420.75
2024-04-17T01:47:31.472Z,93409.19
2024-04-17T01:50:02.368Z,93404.09
2024-04-17T01:52:31.387Z,93407.44
2024-04-17T01:54:58.528Z,93402.53
2024-04-17T01:57:25.652Z,93384.97
2024-04-17T01:59:53.092Z,93384.34
2024-04-17T02:02:20.284Z,93391.91
2024-04-17T02:04:47.584Z,93380.34
2024-04-17T02:07:14.864Z,93381.63
2024-04-17T02:09:42.013Z,93382.72
2024-04-17T02:12:09.549Z,93370.69
2024-04-17T02:14:36.937Z,93361.84
2024-04-17T02:17:04.267Z,93363.06
2024-04-17T02:19:51.298Z,93363.66
2024-04-17T02:22:18.566Z,93367.69
2024-04-17T02:24:45.706Z,93368.75
2024-04-17T02:27:12.934Z,93359.59
2024-04-17T02:29:39.999Z,93356.94
2024-04-17T02:32:08.495Z,93366.03
2024-04-17T02:34:35.867Z,93351.38
2024-04-17T02:37:03.162Z,93353.47
2024-04-17T02:39:30.371Z,93347.88
2024-04-17T02:41:57.613Z,93352.16
2024-04-17T02:44:24.767Z,93332.88
2024-04-17T02:46:52.203Z,93331.44
2024-04-17T02:49:19.771Z,93332.84
2024-04-17T02:51:47.470Z,93329.22
2024-04-17T02:54:14.604Z,93339.31
2024-04-17T02:56:42.050Z,93325.84
2024-04-17T02:59:09.288Z,93303.91
2024-04-17T03:01:36.566Z,93307.31
2024-04-17T03:04:04.128Z,93315.56
2024-04-17T03:06:31.301Z,93330.31
2024-04-17T03:08:58.504Z,93324.84
2024-04-17T03:11:25.774Z,93306.97
2024-04-17T03:13:53.162Z,93301.72
2024-04-17T03:16:20.553Z,93321.56
2024-04-17T03:18:47.849Z,93325.88
2024-04-17T03:21:15.085Z,93316.41
2024-04-17T03:23:42.525Z,93327.28
2024-04-17T03:26:09.755Z,93327.47
2024-04-17T03:28:37.108Z,93317.97
2024-04-17T03:31:04.482Z,93310.91
2024-04-17T03:33:31.786Z,93317.66
2024-04-17T03:36:00.417Z,93319.56
2024-04-17T03:38:28.075Z,93316.41
2024-04-17T03:40:56.603Z,93318.28
2024-04-17T03:43:24.574Z,93318.50
2024-04-17T03:45:52.096Z,93313.78
2024-04-17T03:48:19.417Z,93309.03
2024-04-17T03:50:46.832Z,93343.38
2024-04-17T03:53:14.174Z,93336.56
2024-04-17T03:55:41.476Z,93315.19
2024-04-17T03:58:08.959Z,93323.41
2024-04-17T04:00:36.253Z,93320.25
2024-04-17T04:03:03.785Z,93334.75
2024-04-17T04:05:31.028Z,93296.72
2024-04-17T04:07:58.374Z,93331.06
2024-04-17T04:10:25.725Z,93320.22
2024-04-17T04:12:53.176Z,93312.53
2024-04-17T04:15:20.363Z,93326.09
2024-04-17T04:17:47.705Z,93301.56
2024-04-17T04:20:15.166Z,93323.06
2024-04-17T04:22:42.586Z,93309.78
2024-04-17T04:25:09.904Z,93315.97
2024-04-17T04:27:37.196Z,93306.03
2024-04-17T04:30:04.784Z,93309.28
2024-04-17T04:32:32.420Z,93310.88
2024-04-17T04:34:59.817Z,93302.69
2024-04-17T04:37:27.555Z,93333.53
2024-04-17T04:39:54.927Z,93336.19
2024-04-17T04:42:22.134Z,93333.47
2024-04-17T04:44:50.062Z,93335.53
2024-04-17T04:47:17.396Z,93330.22
2024-04-17T04:49:46.549Z,93339.09
2024-04-17T04:52:13.997Z,93334.50
2024-04-17T04:54:41.375Z,93349.28
2024-04-17T04:57:08.653Z,93348.53
2024-04-17T04:59:36.420Z,93338.41
2024-04-17T05:02:04.662Z,93350.22
2024-04-17T05:04:32.002Z,93352.13
2024-04-17T05:06:59.325Z,93348.00
2024-04-17T05:09:28.297Z,93350.91
2024-04-17T05:11:55.916Z,93341.63
2024-04-17T05:14:23.372Z,93359.94
2024-04-17T05:16:50.905Z,93354.69
2024-04-17T05:19:18.317Z,93354.84
2024-04-17T05:21:45.691Z,93342.94
2024-04-17T05:24:13.188Z,93328.25
2024-04-17T05:26:40.544Z,93315.09
2024-04-17T05:29:07.834Z,93304.59
2024-04-17T05:31:35.153Z,93339.25
2024-04-17T05:34:02.658Z,93353.69
2024-04-17T05:36:30.005Z,93338.31
2024-04-17T05:38:57.203Z,93331.84
2024-04-17T05:41:24.496Z,93305.88
2024-04-17T05:43:51.865Z,93303.19
2024-04-17T05:46:19.258Z,93271.56
2024-04-17T05:48:46.867Z,93279.94
2024-04-17T05:51:14.031Z,93282.63
2024-04-17T05:53:41.332Z,93309.63
2024-04-17T05:56:08.776Z,93318.81
2024-04-17T05:58:36.006Z,93321.97
2024-04-17T06:01:03.369Z,93313.94
2024-04-17T06:03:30.678Z,93319.94
2024-04-17T06:05:58.099Z,93304.91
2024-04-17T06:08:25.379Z,93300.97
2024-04-17T06:10:52.931Z,93294.63
2024-04-17T06:13:20.312Z,93300.69
2024-04-17T06:15:48.658Z,93309.53
2024-04-17T06:18:16.113Z,93300.69
2024-04-17T06:20:43.563Z,93308.25
2024-04-17T06:23:11.152Z,93317.41
2024-04-17T06:25:43.047Z,93306.22
2024-04-17T06:28:10.447Z,93304.59
2024-04-17T06:30:38.114Z,93292.06
2024-04-17T06:33:05.752Z,93284.09
2024-04-17T06:35:34.342Z,93280.41
2024-04-17T06:38:02.242Z,93268.78
2024-04-17T06:40:29.634Z,93291.56
2024-04-17T06:42:57.237Z,93297.94
2024-04-17T06:45:24.530Z,93286.56
2024-04-17T06:47:51.970Z,93290.84
2024-04-17T06:50:19.269Z,93293.50
2024-04-17T06:52:46.579Z,93296.88
2024-04-17T06:55:14.196Z,93301.91
2024-04-17T06:57:41.507Z,93304.59
2024-04-17T07:00:11.187Z,93313.91
2024-04-17T07:02:45.993Z,93290.66
2024-04-17T07:05:16.897Z,93282.47
2024-04-17T07:07:44.166Z,93287.66
2024-04-17T07:10:11.942Z,93282.88
2024-04-17T07:12:40.420Z,93286.00
2024-04-17T07:15:07.749Z,93290.25
2024-04-17T07:17:35.005Z,93278.97
2024-04-17T07:20:02.571Z,93278.44
2024-04-17T07:22:31.464Z,93301.94
2024-04-17T07:24:58.960Z,93283.88
2024-04-17T07:27:26.256Z,93247.41
2024-04-17T07:29:53.504Z,93280.16
2024-04-17T07:32:21.459Z,93268.81
2024-04-17T07:34:48.827Z,93262.66
2024-04-17T07:37:16.632Z,93234.38
2024-04-17T07:39:43.871Z,93237.88
2024-04-17T07:42:11.181Z,93216.88
2024-04-17T07:44:38.495Z,93222.56
2024-04-17T07:47:06.151Z,93232.03
2024-04-17T07:49:33.714Z,93247.06
2024-04-17T07:52:00.874Z,93265.88
2024-04-17T07:54:28.315Z,93262.81
2024-04-17T07:56:56.763Z,93261.22
2024-04-17T07:59:24.090Z,93244.25
2024-04-17T08:01:51.355Z,93257.38
2024-04-17T08:04:18.698Z,93254.09
2024-04-17T08:06:45.940Z,93257.09
2024-04-17T08:09:13.279Z,93232.78
2024-04-17T08:11:41.148Z,93265.41
2024-04-17T08:14:08.696Z,93267.81
2024-04-17T08:16:36.180Z,93266.44
2024-04-17T08:19:03.634Z,93259.84
2024-04-17T08:21:30.781Z,93235.72
2024-04-17T08:23:58.457Z,93267.19
2024-04-17T08:26:25.851Z,93263.06
2024-04-17T08:28:53.363Z,93257.91
2024-04-17T08:31:20.586Z,93263.66
2024-04-17T08:33:48.018Z,93255.44
2024-04-17T08:36:15.345Z,93262.84
2024-04-17T08:38:42.702Z,93251.19
2024-04-17T08:41:10.037Z,93256.78
2024-04-17T08:43:38.724Z,93264.84
2024-04-17T08:46:07.407Z,93266.03
2024-04-17T08:48:35.137Z,93251.78
2024-04-17T08:51:03.949Z,93243.47
2024-04-17T08:53:33.258Z,93238.63
2024-04-17T08:56:00.638Z,93236.91
2024-04-17T08:58:28.124Z,93231.50
2024-04-17T09:00:57.108Z,93227.63
2024-04-17T09:03:26.002Z,93198.13
2024-04-17T09:05:57.106Z,93189.53
2024-04-17T09:08:26.627Z,93200.34
2024-04-17T09:10:56.344Z,93205.88
2024-04-17T09:13:23.883Z,93223.94
2024-04-17T09:15:51.955Z,93208.75
2024-04-17T09:18:28.337Z,93204.19
2024-04-17T09:20:57.057Z,93201.97
2024-04-17T09:23:25.345Z,93206.44
2024-04-17T09:25:56.063Z,93212.31
2024-04-17T09:28:24.421Z,93197.06
2024-04-17T09:30:51.892Z,93185.91
2024-04-17T09:33:19.232Z,93198.09
2024-04-17T09:35:46.651Z,93204.16
2024-04-17T09:38:17.442Z,93202.97
2024-04-17T09:40:45.976Z,93219.59
2024-04-17T09:43:29.006Z,93218.09
2024-04-17T09:46:07.727Z,93201.34
2024-04-17T09:48:42.541Z,93198.44
2024-04-17T09:51:12.581Z,93201.06
2024-04-17T09:53:54.759Z,93194.38
2024-04-17T09:56:23.687Z,93179.97
2024-04-17T09:58:59.549Z,93188.28
2024-04-17T10:01:32.778Z,93183.34
2024-04-17T10:04:01.582Z,93189.63
2024-04-17T10:06:30.635Z,93189.66
2024-04-17T10:09:00.211Z,93182.78
2024-04-17T10:11:28.378Z,93171.34
2024-04-17T10:13:56.632Z,93183.31
2024-04-17T10:16:24.221Z,93175.72
2024-04-17T10:18:52.435Z,93157.00
2024-04-17T10:21:22.905Z,93164.97
2024-04-17T10:24:12.806Z,93160.06
2024-04-17T10:26:48.151Z,93148.91
2024-04-17T10:29:24.250Z,93135.84
2024-04-17T10:31:57.779Z,93134.13
2024-04-17T10:34:27.700Z,93125.84
2024-04-17T10:36:59.589Z,93127.94
2024-04-17T10:39:28.326Z,93123.97
2024-04-17T10:41:55.940Z,93116.25
2024-04-17T10:44:23.753Z,93099.31
2024-04-17T10:47:02.176Z,93117.84
2024-04-17T10:49:29.711Z,93109.94
2024-04-17T10:51:57.086Z,93117.22
2024-04-17T10:54:25.028Z,93112.28
2024-04-17T10:56:52.416Z,93097.63
2024-04-17T10:59:26.995Z,93083.06
2024-04-17T11:01:54.309Z,93089.94
2024-04-17T11:04:21.699Z,93094.38
2024-04-17T11:06:50.670Z,93061.59
2024-04-17T11:09:18.525Z,93075.25
2024-04-17T11:11:49.565Z,93070.69
2024-04-17T11:14:17.302Z,93072.06
2024-04-17T11:16:47.804Z,93075.66
2024-04-17T11:19:16.166Z,93109.00
2024-04-17T11:21:47.234Z,93121.69
2024-04-17T11:24:19.612Z,93137.78
2024-04-17T11:26:47.634Z,93157.38
2024-04-17T11:29:26.512Z,93152.06
2024-04-17T11:32:01.406Z,93165.41
2024-04-17T11:34:28.711Z,93152.75
2024-04-17T11:37:05.228Z,93154.34
2024-04-17T11:39:38.039Z,93166.56
2024-04-17T11:42:08.469Z,93177.69
2024-04-17T11:44:40.818Z,93166.75
2024-04-17T11:47:16.533Z,93167.53
2024-04-17T11:49:44.733Z,93176.38
2024-04-17T11:52:14.343Z,93185.56
2024-04-17T11:54:42.255Z,93187.09
2024-04-17T11:57:13.490Z,93203.72
2024-04-17T11:59:43.656Z,93205.47
2024-04-17T12:02:10.928Z,93199.53
2024-04-17T12:04:38.607Z,93185.63
2024-04-17T12:07:06.010Z,93207.00
2024-04-17T12:09:33.301Z,93197.44
2024-04-17T12:12:00.721Z,93214.28
2024-04-17T12:14:27.971Z,93208.22
2024-04-17T12:16:57.504Z,93212.63
2024-04-17T12:19:24.904Z,93229.34
2024-04-17T12:21:52.111Z,93199.09
2024-04-17T12:24:21.205Z,93238.28
2024-04-17T12:26:52.634Z,93233.69
2024-04-17T12:29:21.490Z,93238.53
2024-04-17T12:31:49.863Z,93233.50
2024-04-17T12:34:17.578Z,93231.72
2024-04-17T12:36:44.997Z,93237.19
2024-04-17T12:39:13.478Z,93249.56
2024-04-17T12:41:40.953Z,93247.31
2024-04-17T12:44:08.395Z,93259.97
2024-04-17T12:46:35.744Z,93250.94
2024-04-17T12:49:03.103Z,93259.41
2024-04-17T12:51:30.451Z,93285.50
2024-04-17T12:53:57.656Z,93304.16
2024-04-17T12:56:25.006Z,93319.53
2024-04-17T12:58:52.464Z,93335.31
2024-04-17T13:01:19.650Z,93330.88
2024-04-17T13:03:47.064Z,93336.25
2024-04-17T13:06:15.230Z,93347.00
2024-04-17T13:08:42.901Z,93370.75
2024-04-17T13:11:13.303Z,93383.22
2024-04-17T13:13:42.692Z,93395.22
2024-04-17T13:16:09.974Z,93398.66
2024-04-17T13:18:39.050Z,93381.69
2024-04-17T13:21:06.797Z,93415.94
2024-04-17T13:23:35.342Z,93444.84
2024-04-17T13:26:03.980Z,93454.78
2024-04-17T13:28:35.494Z,93448.34
2024-04-17T13:31:05.165Z,93437.44
2024-04-17T13:33:35.653Z,93421.94
2024-04-17T13:36:08.495Z,93418.94
2024-04-17T13:38:35.846Z,93420.38
2024-04-17T13:41:06.181Z,93401.03
2024-04-17T13:43:37.911Z,93401.09
2024-04-17T13:46:07.603Z,93412.13
2024-04-17T13:48:35.191Z,93424.38
2024-04-17T13:51:04.140Z,93411.47
2024-04-17T13:53:32.906Z,93392.94
2024-04-17T13:56:00.427Z,93369.03
2024-04-17T13:58:30.655Z,93362.13
2024-04-17T14:00:58.126Z,93395.34
2024-04-17T14:03:26.586Z,93419.34
2024-04-17T14:05:54.518Z,93406.88
2024-04-17T14:08:24.179Z,93421.06
2024-04-17T14:10:52.543Z,93428.47
2024-04-17T14:13:19.847Z,93410.78
2024-04-17T14:15:47.246Z,93399.69
2024-04-17T14:18:14.984Z,93396.03
2024-04-17T14:20:42.606Z,93427.38
2024-04-17T14:23:11.727Z,93440.63
2024-04-17T14:25:39.635Z,93439.81
2024-04-17T14:28:07.532Z,93450.19
2024-04-17T14:30:35.079Z,93434.44
2024-04-17T14:33:02.761Z,93436.38
2024-04-17T14:35:30.261Z,93452.97
2024-04-17T14:37:57.642Z,93448.97
2024-04-17T14:40:24.934Z,93446.22
2024-04-17T14:42:52.100Z,93449.41
2024-04-17T14:45:19.322Z,93428.94
2024-04-17T14:47:46.806Z,93438.47
2024-04-17T14:50:20.234Z,93453.22
2024-04-17T14:52:49.253Z,93466.19
2024-04-17T14:55:16.560Z,93479.47
2024-04-17T14:57:44.792Z,93477.16
2024-04-17T15:00:12.664Z,93457.59
2024-04-17T15:02:40.090Z,93456.44
2024-04-17T15:05:08.327Z,93438.44
2024-04-17T15:07:35.579Z,93427.56
2024-04-17T15:10:02.959Z,93420.66
2024-04-17T15:12:30.678Z,93417.69
2024-04-17T15:14:58.070Z,93430.75
2024-04-17T15:17:25.796Z,93450.44
2024-04-17T15:19:53.155Z,93445.25
2024-04-17T15:22:20.454Z,93444.44
2024-04-17T15:24:48.479Z,93431.63
2024-04-17T15:27:15.919Z,93450.72
2024-04-17T15:29:46.180Z,93465.09
2024-04-17T15:32:13.424Z,93482.44
2024-04-17T15:34:40.893Z,93474.25
2024-04-17T15:37:09.985Z,93472.38
2024-04-17T15:39:37.408Z,93459.66
2024-04-17T15:42:04.932Z,93461.47
2024-04-17T15:44:32.680Z,93467.25
2024-04-17T15:47:00.106Z,93464.06
2024-04-17T15:49:28.402Z,93456.44
2024-04-17T15:51:57.304Z,93461.56
2024-04-17T15:54:25.727Z,93483.25
2024-04-17T15:56:53.168Z,93500.81
2024-04-17T15:59:20.587Z,93488.66
2024-04-17T16:01:50.139Z,93463.16
2024-04-17T16:04:18.884Z,93458.63
2024-04-17T16:06:46.752Z,93455.44
2024-04-17T16:09:17.313Z,93436.28
2024-04-17T16:11:44.895Z,93431.09
2024-04-17T16:14:13.323Z,93448.09
2024-04-17T16:16:40.907Z,93456.50
2024-04-17T16:19:08.462Z,93462.03
2024-04-17T16:21:36.232Z,93457.34
2024-04-17T16:24:07.415Z,93457.50
2024-04-17T16:26:35.097Z,93442.84
2024-04-17T16:29:02.751Z,93426.91
2024-04-17T16:31:34.442Z,93414.97
2024-04-17T16:34:02.129Z,93410.94
2024-04-17T16:36:29.672Z,93420.06
2024-04-17T16:38:57.198Z,93427.72
2024-04-17T16:41:24.674Z,93444.63
2024-04-17T16:43:52.230Z,93467.75
2024-04-17T16:46:19.833Z,93454.31
2024-04-17T16:48:47.890Z,93440.97
2024-04-17T16:51:16.031Z,93459.72
2024-04-17T16:53:46.863Z,93459.25
2024-04-17T16:56:14.536Z,93457.03
2024-04-17T16:58:42.068Z,93461.41
2024-04-17T17:01:14.059Z,93451.56
2024-04-17T17:03:41.792Z,93431.78
2024-04-17T17:06:09.719Z,93439.88
2024-04-17T17:08:38.850Z,93431.91
2024-04-17T17:11:07.352Z,93446.84
2024-04-17T17:13:38.930Z,93459.44
2024-04-17T17:16:07.262Z,93476.13
2024-04-17T17:18:35.901Z,93475.25
2024-04-17T17:21:10.061Z,93476.28
2024-04-17T17:23:38.306Z,93486.16
2024-04-17T17:26:13.474Z,93498.41
2024-04-17T17:28:43.366Z,93495.25
2024-04-17T17:31:10.983Z,93498.00
2024-04-17T17:33:38.970Z,93499.59
2024-04-17T17:36:08.133Z,93524.88
2024-04-17T17:38:41.826Z,93522.78
2024-04-17T17:41:17.642Z,93511.25
2024-04-17T17:43:45.461Z,93539.53
2024-04-17T17:46:21.652Z,93552.03
2024-04-17T17:48:53.989Z,93562.75
2024-04-17T17:51:25.007Z,93565.16
2024-04-17T17:53:52.493Z,93557.50
2024-04-17T17:56:23.558Z,93539.41
2024-04-17T17:59:00.607Z,93533.00
2024-04-17T18:01:34.035Z,93554.53
2024-04-17T18:04:02.153Z,93563.78
2024-04-17T18:06:30.332Z,93563.47
2024-04-17T18:09:00.516Z,93555.50
2024-04-17T18:11:28.871Z,93569.28
2024-04-17T18:13:56.319Z,93562.56
2024-04-17T18:16:29.716Z,93533.59
2024-04-17T18:19:03.765Z,93578.88
2024-04-17T18:21:32.304Z,93568.00
2024-04-17T18:23:59.980Z,93562.88
2024-04-17T18:26:29.915Z,93571.09
2024-04-17T18:28:57.449Z,93569.44
2024-04-17T18:31:24.880Z,93563.91
2024-04-17T18:33:53.455Z,93578.97
2024-04-17T18:36:24.032Z,93575.13
2024-04-17T18:38:52.919Z,93573.53
2024-04-17T18:41:25.412Z,93582.72
2024-04-17T18:43:56.486Z,93591.03
2024-04-17T18:46:26.597Z,93607.22
2024-04-17T18:48:57.256Z,93611.34
2024-04-17T18:51:24.977Z,93624.63
2024-04-17T18:53:53.351Z,93611.47
2024-04-17T18:56:26.864Z,93599.88
2024-04-17T18:58:54.343Z,93587.66
2024-04-17T19:01:22.681Z,93582.56
2024-04-17T19:03:50.962Z,93588.91
2024-04-17T19:06:20.043Z,93592.16
2024-04-17T19:08:48.653Z,93602.81
2024-04-17T19:11:16.867Z,93600.63
2024-04-17T19:13:44.803Z,93598.00
2024-04-17T19:16:22.031Z,93589.22
2024-04-17T19:18:51.652Z,93576.03
2024-04-17T19:21:19.542Z,93563.66
2024-04-17T19:23:47.911Z,93572.75
2024-04-17T19:26:15.976Z,93589.19
2024-04-17T19:28:47.054Z,93595.31
2024-04-17T19:31:15.069Z,93617.03
2024-04-17T19:33:42.537Z,93651.00
2024-04-17T19:36:14.443Z,93658.97
2024-04-17T19:38:46.283Z,93663.66
2024-04-17T19:41:13.790Z,93653.81
2024-04-17T19:43:41.952Z,93641.16
2024-04-17T19:46:10.546Z,93658.47
2024-04-17T19:48:45.694Z,93671.38
2024-04-17T19:51:15.999Z,93677.41
2024-04-17T19:53:43.867Z,93702.50
2024-04-17T19:56:14.785Z,93696.59
2024-04-17T19:58:42.741Z,93702.75
2024-04-17T20:01:11.075Z,93702.81
2024-04-17T20:03:40.286Z,93690.03
2024-04-17T20:06:09.011Z,93692.63
2024-04-17T20:08:36.313Z,93673.31
2024-04-17T20:11:04.331Z,93676.25
2024-04-17T20:13:32.604Z,93678.38
2024-04-17T20:16:03.801Z,93663.97
2024-04-17T20:18:36.904Z,93655.53
2024-04-17T20:21:07.213Z,93639.56
2024-04-17T20:23:35.199Z,93631.47
2024-04-17T20:26:07.646Z,93615.50
2024-04-17T20:28:41.321Z,93611.78
2024-04-17T20:31:15.636Z,93607.34
2024-04-17T20:33:46.952Z,93620.13
2024-04-17T20:36:18.021Z,93613.28
2024-04-17T20:38:46.761Z,93611.50
2024-04-17T20:41:14.811Z,93611.69
2024-04-17T20:43:42.746Z,93608.22
2024-04-17T20:46:12.072Z,93602.50
2024-04-17T20:48:40.176Z,93612.06
2024-04-17T20:51:08.452Z,93615.22
2024-04-17T20:53:38.685Z,93623.97
2024-04-17T20:56:10.058Z,93627.47
2024-04-17T20:58:38.720Z,93622.97
2024-04-17T21:01:08.898Z,93616.00
2024-04-17T21:03:38.078Z,93598.69
2024-04-17T21:06:10.555Z,93602.53
2024-04-17T21:08:40.063Z,93602.50
2024-04-17T21:11:09.345Z,93606.22
2024-04-17T21:13:38.266Z,93609.47
2024-04-17T21:16:20.969Z,93613.03
2024-04-17T21:18:48.772Z,93626.34
2024-04-17T21:21:16.041Z,93634.41
2024-04-17T21:23:43.753Z,93649.88
2024-04-17T21:26:15.907Z,93644.09
2024-04-17T21:28:44.903Z,93647.16
2024-04-17T21:31:18.963Z,93666.97
2024-04-17T21:33:48.291Z,93655.72
2024-04-17T21:36:16.475Z,93620.91
2024-04-17T21:38:44.258Z,93623.47
2024-04-17T21:41:11.720Z,93619.38
2024-04-17T21:43:39.545Z,93619.59
2024-04-17T21:46:12.694Z,93630.69
2024-04-17T21:48:43.040Z,93631.31
2024-04-17T21:51:11.088Z,93622.47
2024-04-17T21:53:41.276Z,93626.72
2024-04-17T21:56:11.253Z,93615.25
2024-04-17T21:58:39.128Z,93610.63
2024-04-17T22:01:07.784Z,93620.25
2024-04-17T22:03:35.892Z,93631.25
2024-04-17T22:06:04.823Z,93631.75
2024-04-17T22:08:32.829Z,93630.84
2024-04-17T22:11:00.097Z,93632.13
2024-04-17T22:13:27.589Z,93629.34
2024-04-17T22:15:54.912Z,93634.72
2024-04-17T22:18:22.499Z,93635.84
2024-04-17T22:20:49.680Z,93626.81
2024-04-17T22:23:17.067Z,93642.44
2024-04-17T22:25:44.298Z,93647.22
2024-04-17T22:28:11.738Z,93654.97
2024-04-17T22:30:38.909Z,93655.78
2024-04-17T22:33:06.293Z,93650.84
2024-04-17T22:35:34.044Z,93667.09
2024-04-17T22:38:01.269Z,93660.41
2024-04-17T22:40:28.633Z,93663.84
2024-04-17T22:42:57.459Z,93671.69
2024-04-17T22:45:25.652Z,93675.66
2024-04-17T22:47:53.069Z,93678.44
2024-04-17T22:50:20.480Z,93678.25
2024-04-17T22:52:47.696Z,93682.25
2024-04-17T22:55:15.184Z,93690.00
2024-04-17T22:57:42.438Z,93678.97
2024-04-17T23:00:12.827Z,93677.25
2024-04-17T23:02:40.366Z,93683.41
2024-04-17T23:05:07.811Z,93688.09
2024-04-17T23:07:35.102Z,93676.03
2024-04-17T23:10:02.366Z,93678.25
2024-04-17T23:12:31.007Z,93668.44
2024-04-17T23:14:58.197Z,93673.25
2024-04-17T23:17:25.492Z,93662.75
2024-04-17T23:19:52.702Z,93655.47
2024-04-17T23:22:20.130Z,93658.53
2024-04-17T23:24:47.338Z,93643.53
2024-04-17T23:27:14.762Z,93652.53
2024-04-17T23:29:42.392Z,93650.47
2024-04-17T23:32:09.655Z,93643.44
2024-04-17T23:34:37.082Z,93651.41
2024-04-17T23:37:04.469Z,93644.22
2024-04-17T23:39:31.802Z,93653.75
2024-04-17T23:41:59.274Z,93649.19
2024-04-17T23:44:27.281Z,93646.66
2024-04-17T23:46:54.870Z,93645.03
2024-04-17T23:49:22.763Z,93647.78
2024-04-17T23:51:50.253Z,93638.53
2024-04-17T23:54:17.841Z,93628.66
2024-04-17T23:56:45.124Z,93645.19
2024-04-17T23:59:13.895Z,93634.28
